Time;durP1;ratioP1;P1;durP2;ratioP2;P2;SDS_P1;SDS_P2;PMS_P1;PMS_P2;Temp;Humidity;BMP_temperature;BMP_pressure;BME280_temperature;BME280_humidity;BME280_pressure;Samples;Min_cycle;Max_cycle;Signal;HPM_P1;HPM_P2
2023/06/29 00:00:31;;;;;;;34.50;30.25;;;17.70;92.60;;;;;;5055082;28;20496;-50
2023/06/29 00:02:58;;;;;;;33.20;29.42;;;17.80;92.60;;;;;;5053123;28;20041;-49
2023/06/29 00:05:25;;;;;;;37.65;31.15;;;17.70;92.70;;;;;;5055162;28;20025;-50
2023/06/29 00:07:52;;;;;;;35.15;31.40;;;17.70;92.60;;;;;;5054897;28;20029;-49
2023/06/29 00:10:18;;;;;;;38.38;34.30;;;17.70;92.60;;;;;;5054799;28;20033;-49
2023/06/29 00:17:17;;;;;;;35.55;30.65;;;17.70;92.70;;;;;;5031356;28;20453;-49
2023/06/29 00:20:13;;;;;;;38.85;33.10;;;17.70;92.70;;;;;;5030459;28;20026;-52
2023/06/29 00:22:59;;;;;;;37.90;32.58;;;17.70;92.60;;;;;;5031741;28;20123;-49
2023/06/29 00:25:25;;;;;;;37.80;31.63;;;17.70;92.60;;;;;;5015714;28;20072;-49
2023/06/29 00:27:52;;;;;;;38.20;32.20;;;17.70;92.60;;;;;;5034004;28;20485;-50
2023/06/29 00:30:19;;;;;;;36.92;32.55;;;17.70;92.50;;;;;;5033744;28;20592;-49
2023/06/29 00:32:46;;;;;;;34.58;29.10;;;17.70;92.50;;;;;;5033945;28;20466;-49
2023/06/29 00:35:13;;;;;;;39.78;33.08;;;17.70;92.60;;;;;;5033802;28;20026;-49
2023/06/29 00:37:42;;;;;;;36.67;32.75;;;17.70;92.60;;;;;;5034314;28;20021;-48
2023/06/29 00:40:10;;;;;;;38.10;32.72;;;17.60;92.70;;;;;;5034318;28;20022;-51
2023/06/29 00:42:39;;;;;;;38.42;31.58;;;17.60;92.70;;;;;;5034295;28;20394;-49
2023/06/29 00:45:05;;;;;;;33.72;29.88;;;17.60;92.70;;;;;;5034162;28;20037;-51
2023/06/29 00:47:33;;;;;;;36.15;30.63;;;17.60;92.70;;;;;;5034000;28;20518;-49
2023/06/29 00:50:00;;;;;;;35.63;31.52;;;17.60;92.70;;;;;;5034041;28;20056;-49
2023/06/29 00:52:28;;;;;;;39.35;32.95;;;17.60;92.70;;;;;;5032985;28;20021;-50
2023/06/29 00:54:56;;;;;;;37.08;31.35;;;17.70;92.70;;;;;;5033956;28;20029;-49
2023/06/29 00:57:24;;;;;;;35.05;30.95;;;17.60;92.70;;;;;;5033022;28;20021;-48
2023/06/29 00:59:50;;;;;;;31.63;28.20;;;17.60;92.60;;;;;;5034343;28;20025;-48
2023/06/29 01:02:17;;;;;;;30.90;27.20;;;17.70;92.60;;;;;;5033887;28;20071;-51
2023/06/29 01:04:48;;;;;;;39.47;28.02;;;17.70;92.60;;;;;;5033766;28;20094;-50
2023/06/29 01:07:23;;;;;;;32.40;27.50;;;17.70;92.50;;;;;;5033773;28;20351;-49
2023/06/29 01:09:52;;;;;;;34.70;29.20;;;17.70;92.50;;;;;;5016328;28;20037;-49
2023/06/29 01:12:20;;;;;;;33.73;27.43;;;17.80;92.50;;;;;;5033610;28;20351;-50
2023/06/29 01:14:50;;;;;;;32.78;27.05;;;17.80;92.40;;;;;;5033449;28;20057;-49
2023/06/29 01:17:23;;;;;;;31.05;27.13;;;17.80;92.30;;;;;;5033568;28;20032;-49
2023/06/29 01:19:51;;;;;;;30.98;27.63;;;17.70;92.30;;;;;;5033254;28;20370;-49
2023/06/29 01:22:41;;;;;;;29.70;26.17;;;17.70;92.30;;;;;;5033485;28;20447;-49
2023/06/29 01:25:08;;;;;;;;;;;17.70;92.30;;;;;;5026204;28;20037;-50
2023/06/29 01:27:43;;;;;;;37.28;28.90;;;17.70;92.30;;;;;;5032361;28;19996;-49
2023/06/29 01:30:14;;;;;;;34.40;30.25;;;17.70;92.20;;;;;;5033092;28;20461;-49
2023/06/29 01:32:41;;;;;;;30.00;26.17;;;17.70;92.20;;;;;;5033432;28;20067;-49
2023/06/29 01:35:10;;;;;;;31.85;28.48;;;17.80;92.30;;;;;;5032594;28;20037;-48
2023/06/29 01:37:58;;;;;;;28.30;25.50;;;17.70;92.20;;;;;;5033186;28;20030;-49
2023/06/29 01:40:29;;;;;;;33.00;27.13;;;17.70;92.30;;;;;;5033195;28;20029;-49
2023/06/29 01:42:56;;;;;;;35.22;27.23;;;17.70;92.30;;;;;;5033261;28;20029;-49
2023/06/29 01:45:23;;;;;;;31.08;25.05;;;17.60;92.30;;;;;;5033201;28;20110;-48
2023/06/29 01:47:51;;;;;;;35.50;29.42;;;17.70;92.30;;;;;;5033112;28;20389;-49
2023/06/29 01:50:19;;;;;;;33.13;26.40;;;17.60;92.30;;;;;;5052975;28;20025;-48
2023/06/29 01:52:46;;;;;;;35.85;29.83;;;17.70;92.30;;;;;;5052876;28;20033;-49
2023/06/29 01:55:13;;;;;;;34.15;28.77;;;17.70;92.30;;;;;;5035818;28;20032;-48
2023/06/29 01:57:40;;;;;;;34.13;29.65;;;17.60;92.30;;;;;;5032897;28;20033;-48
2023/06/29 02:00:08;;;;;;;37.05;29.63;;;17.60;92.30;;;;;;5032812;28;20036;-48
2023/06/29 02:02:34;;;;;;;34.97;29.80;;;17.60;92.40;;;;;;5032983;28;20072;-48
2023/06/29 02:05:01;;;;;;;33.97;29.08;;;17.60;92.40;;;;;;5032749;28;20430;-49
2023/06/29 02:07:29;;;;;;;34.80;29.50;;;17.60;92.40;;;;;;5032860;28;20033;-55
2023/06/29 02:09:56;;;;;;;38.05;31.65;;;17.60;92.40;;;;;;5032954;28;20025;-48
2023/06/29 02:12:24;;;;;;;36.65;30.40;;;17.60;92.40;;;;;;5032669;28;20041;-50
2023/06/29 02:14:51;;;;;;;32.58;28.17;;;17.60;92.40;;;;;;5026335;28;20046;-50
2023/06/29 02:17:19;;;;;;;34.20;30.50;;;17.60;92.50;;;;;;5014614;28;20025;-48
2023/06/29 02:19:47;;;;;;;33.30;29.42;;;17.60;92.40;;;;;;5011603;28;20169;-49
2023/06/29 02:22:14;;;;;;;34.80;30.70;;;17.60;92.50;;;;;;5012688;28;20053;-48
2023/06/29 02:24:41;;;;;;;43.90;33.20;;;17.60;92.40;;;;;;4995768;28;20029;-52
2023/06/29 02:27:07;;;;;;;42.50;33.03;;;17.60;92.40;;;;;;5012876;28;20034;-50
2023/06/29 02:29:34;;;;;;;37.10;32.45;;;17.50;92.40;;;;;;5012893;28;20041;-50
2023/06/29 02:32:00;;;;;;;41.13;33.30;;;17.50;92.40;;;;;;5013024;28;20084;-48
2023/06/29 02:34:26;;;;;;;36.65;32.70;;;17.60;92.40;;;;;;5013406;28;20030;-52
2023/06/29 02:36:53;;;;;;;34.35;30.63;;;17.60;92.40;;;;;;5012798;28;20519;-48
2023/06/29 02:39:19;;;;;;;35.15;31.42;;;17.60;92.40;;;;;;4994967;28;20030;-49
2023/06/29 02:41:45;;;;;;;36.42;32.22;;;17.60;92.40;;;;;;5013292;28;20029;-48
2023/06/29 02:44:14;;;;;;;42.45;33.15;;;17.60;92.40;;;;;;5016387;28;20037;-48
2023/06/29 02:46:41;;;;;;;34.33;30.58;;;17.50;92.30;;;;;;5016748;28;20104;-48
2023/06/29 02:49:11;;;;;;;33.95;30.15;;;17.60;92.30;;;;;;5016497;28;20030;-51
2023/06/29 02:51:37;;;;;;;36.10;32.33;;;17.50;92.30;;;;;;5016541;28;20048;-48
2023/06/29 02:54:04;;;;;;;36.55;32.53;;;17.60;92.30;;;;;;5016365;28;20033;-52
2023/06/29 02:56:29;;;;;;;40.65;36.20;;;17.60;92.30;;;;;;5016252;28;20108;-51
2023/06/29 02:58:56;;;;;;;35.05;31.20;;;17.60;92.30;;;;;;5016353;28;20105;-51
2023/06/29 03:01:24;;;;;;;34.67;30.85;;;17.60;92.30;;;;;;5016725;28;20025;-49
2023/06/29 03:03:50;;;;;;;36.05;30.33;;;17.60;92.30;;;;;;5016409;28;20045;-48
2023/06/29 03:06:17;;;;;;;33.55;29.25;;;17.60;92.20;;;;;;5016461;28;20467;-49
2023/06/29 03:08:48;;;;;;;35.75;31.88;;;17.60;92.20;;;;;;5015985;28;20026;-51
2023/06/29 03:11:17;;;;;;;31.98;28.55;;;17.60;92.10;;;;;;5016354;28;20057;-48
2023/06/29 03:13:49;;;;;;;34.30;30.52;;;17.60;92.20;;;;;;5015875;28;20101;-48
2023/06/29 03:16:17;;;;;;;34.65;30.92;;;17.60;92.10;;;;;;5033523;28;20360;-49
2023/06/29 03:18:44;;;;;;;34.38;30.58;;;17.70;92.10;;;;;;5035958;28;20431;-50
2023/06/29 03:21:10;;;;;;;34.35;30.67;;;17.60;92.00;;;;;;5035957;28;20513;-50
2023/06/29 03:23:37;;;;;;;36.97;31.25;;;17.60;92.00;;;;;;5035683;28;20346;-48
2023/06/29 03:26:04;;;;;;;32.67;29.25;;;17.60;92.00;;;;;;5034705;28;20112;-49
2023/06/29 03:28:31;;;;;;;37.40;31.60;;;17.60;92.10;;;;;;5035582;28;20037;-48
2023/06/29 03:30:57;;;;;;;33.88;29.50;;;17.60;92.00;;;;;;5034809;28;20035;-48
2023/06/29 03:33:23;;;;;;;36.72;32.78;;;17.70;92.00;;;;;;5033449;28;20483;-51
2023/06/29 03:35:50;;;;;;;34.35;30.13;;;17.70;92.00;;;;;;5033405;28;20021;-49
2023/06/29 03:38:17;;;;;;;37.00;30.13;;;17.70;91.90;;;;;;5035579;28;20028;-48
2023/06/29 03:40:49;;;;;;;34.03;30.73;;;17.60;92.00;;;;;;5034225;28;20026;-48
2023/06/29 03:43:16;;;;;;;35.28;29.63;;;17.70;91.90;;;;;;5034490;28;20092;-48
2023/06/29 03:45:43;;;;;;;37.85;31.52;;;17.70;91.90;;;;;;5034673;28;20017;-49
2023/06/29 03:48:10;;;;;;;34.38;30.63;;;17.70;91.80;;;;;;5035046;28;20458;-48
2023/06/29 03:50:37;;;;;;;33.80;29.80;;;17.70;91.80;;;;;;5035136;28;20092;-49
2023/06/29 03:53:04;;;;;;;37.53;31.88;;;17.70;91.90;;;;;;5017363;28;20358;-48
2023/06/29 03:55:29;;;;;;;32.25;28.88;;;17.70;91.80;;;;;;5035130;28;20033;-48
2023/06/29 03:57:57;;;;;;;34.53;29.80;;;17.70;91.80;;;;;;5035075;28;20039;-48
2023/06/29 04:00:24;;;;;;;36.55;28.15;;;17.70;91.70;;;;;;5035182;28;20071;-48
2023/06/29 04:02:52;;;;;;;34.60;30.90;;;17.70;91.80;;;;;;5035222;28;20128;-50
2023/06/29 04:05:19;;;;;;;36.63;29.73;;;17.70;91.80;;;;;;5034883;28;20029;-47
2023/06/29 04:07:45;;;;;;;32.80;27.98;;;17.70;91.70;;;;;;5035359;28;20352;-51
2023/06/29 04:10:13;;;;;;;35.65;31.77;;;17.70;91.80;;;;;;5033927;28;20044;-48
2023/06/29 04:12:40;;;;;;;36.80;30.90;;;17.70;91.80;;;;;;5034712;28;20451;-49
2023/06/29 04:15:06;;;;;;;34.15;30.60;;;17.70;91.70;;;;;;5026864;28;20057;-47
2023/06/29 04:17:33;;;;;;;33.22;29.73;;;17.70;91.70;;;;;;5014096;28;20444;-48
2023/06/29 04:20:03;;;;;;;37.65;30.85;;;17.70;91.70;;;;;;5014746;28;20127;-47
2023/06/29 04:22:30;;;;;;;36.65;29.75;;;17.80;91.70;;;;;;5015004;28;20022;-47
2023/06/29 04:24:57;;;;;;;34.45;29.38;;;17.80;91.60;;;;;;5014539;28;20070;-47
2023/06/29 04:27:24;;;;;;;33.67;30.17;;;17.80;91.50;;;;;;5014960;28;20034;-50
2023/06/29 04:29:51;;;;;;;33.28;28.10;;;17.80;91.50;;;;;;5014752;28;20029;-48
2023/06/29 04:32:17;;;;;;;39.08;31.08;;;17.80;91.50;;;;;;5014498;28;20045;-48
2023/06/29 04:34:47;;;;;;;34.53;28.90;;;17.90;91.50;;;;;;5014495;28;20022;-48
2023/06/29 04:37:15;;;;;;;35.45;29.90;;;17.90;91.40;;;;;;5014801;28;20018;-48
2023/06/29 04:39:42;;;;;;;33.80;28.45;;;17.90;91.30;;;;;;5014183;28;20169;-48
2023/06/29 04:42:12;;;;;;;30.58;27.38;;;17.90;91.20;;;;;;5014362;28;20025;-51
2023/06/29 04:44:39;;;;;;;33.22;29.30;;;17.90;91.30;;;;;;5014406;28;20041;-49
2023/06/29 04:47:07;;;;;;;31.73;28.35;;;18.10;91.10;;;;;;5013978;28;20531;-48
2023/06/29 04:49:39;;;;;;;34.38;28.35;;;18.10;91.10;;;;;;5012884;28;20057;-49
2023/06/29 04:52:10;;;;;;;30.75;27.48;;;18.10;90.90;;;;;;5013825;28;20030;-51
2023/06/29 04:54:36;;;;;;;36.45;28.67;;;18.20;90.90;;;;;;5013656;28;20026;-48
2023/06/29 04:57:04;;;;;;;31.00;27.48;;;18.20;90.60;;;;;;5013798;28;20408;-51
2023/06/29 04:59:31;;;;;;;27.58;24.60;;;18.20;90.60;;;;;;5013449;28;20053;-48
2023/06/29 05:02:02;;;;;;;28.88;25.88;;;18.30;90.60;;;;;;5013867;28;20021;-49
2023/06/29 05:04:27;;;;;;;29.30;26.20;;;18.40;90.40;;;;;;5012950;28;20030;-48
2023/06/29 05:06:54;;;;;;;31.52;26.33;;;18.40;90.40;;;;;;5013776;28;20076;-49
2023/06/29 05:09:21;;;;;;;28.67;25.58;;;18.50;90.20;;;;;;5013449;28;20395;-48
2023/06/29 05:11:48;;;;;;;34.50;27.55;;;18.50;89.90;;;;;;5013439;28;20109;-51
2023/06/29 05:14:13;;;;;;;28.48;25.35;;;18.50;89.90;;;;;;5013192;28;20040;-49
2023/06/29 05:16:40;;;;;;;29.17;23.98;;;18.60;89.70;;;;;;5012475;28;20030;-47
2023/06/29 05:19:07;;;;;;;34.30;25.55;;;18.60;89.60;;;;;;5013958;28;20049;-48
2023/06/29 05:21:34;;;;;;;30.67;26.38;;;18.70;89.50;;;;;;5013766;28;20028;-48
2023/06/29 05:24:01;;;;;;;28.55;23.63;;;18.70;89.20;;;;;;5013659;28;20087;-49
2023/06/29 05:26:28;;;;;;;27.30;23.58;;;18.80;89.10;;;;;;5013017;28;20041;-48
2023/06/29 05:28:55;;;;;;;34.22;28.15;;;18.80;89.10;;;;;;5013670;28;20041;-50
2023/06/29 05:31:21;;;;;;;23.83;20.73;;;18.90;88.70;;;;;;5013650;28;20030;-49
2023/06/29 05:33:48;;;;;;;25.85;23.02;;;19.00;88.90;;;;;;5013621;28;20037;-47
2023/06/29 05:36:14;;;;;;;27.08;24.13;;;19.10;88.60;;;;;;5013449;28;20045;-48
2023/06/29 05:38:41;;;;;;;25.92;22.08;;;19.10;88.20;;;;;;5013835;28;20022;-49
2023/06/29 05:41:08;;;;;;;23.27;20.17;;;19.20;88.30;;;;;;5013450;28;20030;-50
2023/06/29 05:43:35;;;;;;;33.78;23.02;;;19.30;88.10;;;;;;5013304;28;20035;-52
2023/06/29 05:46:02;;;;;;;26.85;23.70;;;19.40;87.70;;;;;;5013430;28;20022;-48
2023/06/29 05:48:29;;;;;;;25.45;22.85;;;19.40;87.60;;;;;;5013640;28;20037;-50
2023/06/29 05:50:55;;;;;;;28.85;25.85;;;19.50;87.40;;;;;;5013797;28;20487;-48
2023/06/29 05:53:22;;;;;;;27.63;22.95;;;19.60;87.20;;;;;;5013548;28;20045;-48
2023/06/29 05:55:48;;;;;;;32.55;24.15;;;19.70;86.70;;;;;;5013605;28;20096;-52
2023/06/29 05:58:14;;;;;;;25.17;21.25;;;19.80;86.50;;;;;;5013521;28;20049;-48
2023/06/29 06:00:40;;;;;;;31.25;24.95;;;19.90;86.20;;;;;;5013013;28;20371;-50
2023/06/29 06:03:09;;;;;;;26.08;23.30;;;19.90;85.90;;;;;;5011737;28;20104;-51
2023/06/29 06:05:35;;;;;;;29.23;24.97;;;19.90;85.40;;;;;;5031861;28;20029;-48
2023/06/29 06:08:04;;;;;;;28.75;24.90;;;20.00;85.40;;;;;;5032367;28;20108;-49
2023/06/29 06:10:33;;;;;;;27.70;23.45;;;20.10;84.80;;;;;;5023651;28;20468;-48
2023/06/29 06:13:02;;;;;;;25.48;21.02;;;20.10;85.00;;;;;;5013262;28;20042;-48
2023/06/29 06:15:29;;;;;;;28.08;23.45;;;20.20;85.10;;;;;;5024416;28;20041;-48
2023/06/29 06:17:58;;;;;;;28.45;23.58;;;20.20;84.90;;;;;;5039429;28;20025;-51
2023/06/29 06:20:25;;;;;;;28.98;22.48;;;20.20;85.00;;;;;;5039404;28;20057;-50
2023/06/29 06:22:51;;;;;;;26.20;23.40;;;20.20;85.30;;;;;;5021541;28;20140;-49
2023/06/29 06:25:18;;;;;;;24.23;21.58;;;20.30;84.70;;;;;;5038638;28;20025;-50
2023/06/29 06:27:45;;;;;;;29.70;23.40;;;20.40;84.80;;;;;;5039258;28;20033;-49
2023/06/29 06:30:12;;;;;;;24.65;21.77;;;20.50;84.30;;;;;;5039046;28;20022;-53
2023/06/29 06:32:39;;;;;;;25.55;21.13;;;20.60;84.30;;;;;;5037059;28;20037;-49
2023/06/29 06:35:10;;;;;;;24.75;20.15;;;20.70;84.00;;;;;;5039175;28;20021;-51
2023/06/29 06:37:38;;;;;;;25.48;20.40;;;20.90;84.10;;;;;;5039414;28;20025;-55
2023/06/29 06:40:11;;;;;;;25.48;22.15;;;21.00;83.60;;;;;;5039247;28;20017;-53
2023/06/29 06:42:39;;;;;;;22.73;19.40;;;21.00;82.70;;;;;;5037889;28;20355;-50
2023/06/29 06:45:06;;;;;;;28.00;22.88;;;21.10;83.10;;;;;;5039307;28;20025;-49
2023/06/29 06:47:35;;;;;;;25.35;21.00;;;21.30;82.30;;;;;;5039062;28;20113;-49
2023/06/29 06:50:05;;;;;;;25.63;20.20;;;21.20;82.00;;;;;;5039263;28;20022;-51
2023/06/29 06:52:32;;;;;;;20.38;17.75;;;21.40;82.10;;;;;;5039111;28;20328;-51
2023/06/29 06:55:04;;;;;;;26.02;21.58;;;21.40;82.10;;;;;;5038941;28;20047;-49
2023/06/29 06:57:31;;;;;;;26.02;21.27;;;21.60;81.20;;;;;;5039189;28;20087;-49
2023/06/29 06:59:58;;;;;;;21.98;19.45;;;21.70;80.90;;;;;;5039340;28;20129;-49
2023/06/29 07:02:24;;;;;;;24.85;21.00;;;21.80;79.90;;;;;;5055237;28;20033;-54
2023/06/29 07:04:51;;;;;;;26.23;21.63;;;21.90;79.90;;;;;;5058049;28;20409;-53
2023/06/29 07:07:17;;;;;;;28.15;21.10;;;22.00;79.60;;;;;;5043792;28;20064;-52
2023/06/29 07:09:44;;;;;;;23.77;21.10;;;22.10;79.60;;;;;;5039091;28;20065;-53
2023/06/29 07:12:10;;;;;;;19.58;17.58;;;22.20;78.80;;;;;;5038865;28;20025;-51
2023/06/29 07:14:37;;;;;;;25.98;22.75;;;22.20;78.30;;;;;;5038234;28;20102;-52
2023/06/29 07:17:03;;;;;;;24.95;21.05;;;22.30;78.30;;;;;;5037784;28;20032;-53
2023/06/29 07:19:30;;;;;;;26.02;19.40;;;22.40;78.10;;;;;;5038753;28;20028;-53
2023/06/29 07:22:00;;;;;;;22.25;19.85;;;22.60;77.40;;;;;;5037611;28;20030;-50
2023/06/29 07:24:26;;;;;;;21.92;19.63;;;22.50;77.60;;;;;;5038993;28;20056;-52
2023/06/29 07:26:53;;;;;;;24.20;19.38;;;22.60;77.10;;;;;;5038449;28;20249;-51
2023/06/29 07:29:20;;;;;;;23.35;18.83;;;22.60;76.30;;;;;;5035258;28;20029;-57
2023/06/29 07:31:47;;;;;;;22.30;18.38;;;22.60;75.80;;;;;;5033684;28;20098;-49
2023/06/29 07:34:14;;;;;;;19.10;16.92;;;22.80;75.90;;;;;;5033778;28;20068;-50
2023/06/29 07:36:40;;;;;;;18.67;15.25;;;22.90;74.30;;;;;;5035702;28;20411;-50
2023/06/29 07:39:06;;;;;;;15.95;14.30;;;22.80;76.00;;;;;;5035679;28;20029;-52
2023/06/29 07:41:33;;;;;;;21.65;16.42;;;22.90;76.20;;;;;;5035343;28;20108;-53
2023/06/29 07:44:02;;;;;;;21.35;18.13;;;23.00;76.00;;;;;;5035383;28;20041;-51
2023/06/29 07:46:31;;;;;;;21.85;18.70;;;22.90;75.30;;;;;;5035575;28;20038;-54
2023/06/29 07:49:00;;;;;;;21.97;16.90;;;22.90;74.50;;;;;;5035676;28;20107;-50
2023/06/29 07:51:32;;;;;;;18.60;15.48;;;22.90;75.00;;;;;;5035110;28;20064;-53
2023/06/29 07:54:00;;;;;;;17.77;15.82;;;22.90;75.10;;;;;;5035189;28;20059;-52
2023/06/29 07:56:28;;;;;;;18.02;16.25;;;22.90;75.10;;;;;;5033819;28;20029;-54
2023/06/29 07:58:55;;;;;;;19.98;16.52;;;22.90;74.70;;;;;;5034232;28;20112;-51
2023/06/29 08:01:25;;;;;;;18.95;16.95;;;22.90;75.40;;;;;;5028912;28;20451;-55
2023/06/29 08:03:52;;;;;;;;;;;22.80;74.80;;;;;;5035850;28;20033;-51
2023/06/29 08:06:17;;;;;;;21.48;17.52;;;22.80;75.10;;;;;;5034791;28;19905;-53
2023/06/29 08:08:43;;;;;;;26.00;20.25;;;22.70;75.60;;;;;;5017352;28;20029;-52
2023/06/29 08:11:15;;;;;;;22.80;19.45;;;22.70;75.00;;;;;;5034943;28;20034;-52
2023/06/29 08:13:41;;;;;;;24.75;18.50;;;22.40;75.80;;;;;;5023921;28;20037;-51
2023/06/29 08:16:08;;;;;;;21.60;18.33;;;22.30;76.80;;;;;;5034874;28;20375;-53
2023/06/29 08:18:35;;;;;;;22.52;19.75;;;22.20;77.30;;;;;;5034679;28;20064;-50
2023/06/29 08:21:02;;;;;;;20.40;17.63;;;22.20;76.70;;;;;;5034810;28;20539;-53
2023/06/29 08:23:32;;;;;;;21.30;18.38;;;22.00;77.30;;;;;;5034638;28;20030;-53
2023/06/29 08:25:59;;;;;;;;;;;22.00;77.90;;;;;;5035219;28;20025;-51
2023/06/29 08:28:24;;;;;;;21.25;17.92;;;21.90;77.90;;;;;;5033858;28;19909;-54
2023/06/29 08:30:51;;;;;;;23.75;15.82;;;21.90;78.30;;;;;;5017242;28;20036;-52
2023/06/29 08:33:18;;;;;;;23.33;18.15;;;21.80;78.10;;;;;;5034405;28;20068;-54
2023/06/29 08:35:45;;;;;;;19.67;17.65;;;21.80;79.00;;;;;;5034470;28;20030;-50
2023/06/29 08:38:12;;;;;;;21.02;15.07;;;21.80;78.90;;;;;;5016902;28;20029;-56
2023/06/29 08:40:40;;;;;;;20.63;16.25;;;21.70;79.00;;;;;;5033906;28;20094;-52
2023/06/29 08:43:09;;;;;;;19.13;16.73;;;21.80;78.20;;;;;;5034299;28;20037;-52
2023/06/29 08:45:36;;;;;;;21.50;16.85;;;21.80;78.00;;;;;;5034471;28;20436;-54
2023/06/29 08:48:04;;;;;;;21.27;17.08;;;21.80;77.60;;;;;;5033418;28;20112;-51
2023/06/29 08:50:35;;;;;;;19.05;16.02;;;21.80;77.40;;;;;;5034445;28;20026;-54
2023/06/29 08:53:03;;;;;;;17.98;15.43;;;21.90;77.70;;;;;;5034034;28;20021;-52
2023/06/29 08:55:32;;;;;;;18.63;15.35;;;21.90;77.50;;;;;;5033954;28;20119;-57
2023/06/29 08:58:02;;;;;;;20.40;16.92;;;22.10;77.60;;;;;;5034328;28;20037;-53
2023/06/29 09:00:28;;;;;;;16.70;14.82;;;22.10;76.50;;;;;;5034202;28;20040;-54
2023/06/29 09:02:55;;;;;;;17.67;15.63;;;22.20;76.80;;;;;;5034095;28;20435;-54
2023/06/29 09:05:22;;;;;;;19.85;16.90;;;22.40;77.00;;;;;;5016370;28;20049;-56
2023/06/29 09:07:53;;;;;;;21.08;17.85;;;22.60;76.30;;;;;;5032963;28;20124;-53
2023/06/29 09:10:21;;;;;;;21.02;15.88;;;22.60;76.90;;;;;;5034061;28;20169;-54
2023/06/29 09:12:52;;;;;;;20.27;15.60;;;22.80;76.80;;;;;;5033759;28;20033;-53
2023/06/29 09:15:26;;;;;;;17.48;14.70;;;22.90;76.60;;;;;;5033494;28;20204;-57
2023/06/29 09:17:59;;;;;;;18.10;15.80;;;22.90;76.40;;;;;;5032443;28;20029;-57
2023/06/29 09:20:34;;;;;;;19.92;17.50;;;23.20;75.90;;;;;;5033545;28;20112;-54
2023/06/29 09:23:04;;;;;;;19.88;17.20;;;23.10;74.30;;;;;;5033672;28;20083;-54
2023/06/29 09:25:33;;;;;;;19.60;17.50;;;22.90;75.00;;;;;;5033621;28;20036;-51
2023/06/29 09:28:04;;;;;;;17.88;15.43;;;23.00;74.50;;;;;;5033445;28;20105;-54
2023/06/29 09:30:39;;;;;;;18.60;16.60;;;22.90;74.90;;;;;;5033626;28;20606;-55
2023/06/29 09:33:07;;;;;;;20.13;16.85;;;22.80;75.10;;;;;;5033147;28;20420;-57
2023/06/29 09:35:36;;;;;;;20.50;15.82;;;22.60;75.60;;;;;;5033449;28;20025;-53
2023/06/29 09:38:04;;;;;;;22.35;18.00;;;22.50;76.20;;;;;;5016020;28;20025;-55
2023/06/29 09:40:31;;;;;;;21.95;16.65;;;22.50;75.90;;;;;;5033761;28;20095;-54
2023/06/29 09:43:02;;;;;;;20.20;18.02;;;22.40;76.80;;;;;;5033172;28;20179;-56
2023/06/29 09:45:30;;;;;;;24.52;18.35;;;22.40;76.40;;;;;;5033181;28;20116;-55
2023/06/29 09:47:58;;;;;;;30.15;18.35;;;22.30;76.60;;;;;;5033350;28;20025;-56
2023/06/29 09:50:24;;;;;;;20.33;16.73;;;22.40;77.30;;;;;;5032709;28;20025;-55
2023/06/29 09:52:54;;;;;;;20.45;17.23;;;22.30;77.20;;;;;;5033340;28;20021;-53
2023/06/29 09:55:30;;;;;;;18.98;16.42;;;22.30;77.60;;;;;;5032871;28;20025;-56
2023/06/29 09:57:58;;;;;;;22.70;18.33;;;22.30;77.20;;;;;;5032887;28;20029;-53
2023/06/29 10:00:27;;;;;;;19.38;17.08;;;22.30;76.30;;;;;;5032689;28;20032;-54
2023/06/29 10:03:01;;;;;;;;;;;22.30;77.00;;;;;;5032690;28;20048;-57
2023/06/29 10:05:30;;;;;;;17.02;13.60;;;22.10;76.90;;;;;;5032994;28;19920;-54
2023/06/29 10:07:57;;;;;;;22.53;16.73;;;22.10;77.40;;;;;;5033136;28;20028;-54
2023/06/29 10:10:28;;;;;;;19.45;15.70;;;22.10;77.10;;;;;;5033354;28;20380;-53
2023/06/29 10:12:59;;;;;;;17.08;15.32;;;22.10;77.50;;;;;;5028315;28;20435;-56
2023/06/29 10:15:31;;;;;;;22.65;20.05;;;22.20;77.40;;;;;;5051498;28;20049;-52
2023/06/29 10:18:11;;;;;;;24.35;19.35;;;22.20;77.50;;;;;;5030609;28;20030;-57
2023/06/29 10:20:41;;;;;;;21.20;18.58;;;22.30;78.10;;;;;;5032971;28;20022;-57
2023/06/29 10:23:10;;;;;;;20.90;17.80;;;22.30;78.30;;;;;;5033040;28;20018;-57
2023/06/29 10:25:44;;;;;;;29.63;20.67;;;22.30;77.40;;;;;;5032618;28;20045;-53
2023/06/29 10:28:13;;;;;;;24.48;19.08;;;22.30;77.60;;;;;;5032978;28;20423;-55
2023/06/29 10:30:50;;;;;;;22.52;18.45;;;22.40;78.20;;;;;;5042735;28;20044;-53
2023/06/29 10:33:26;;;;;;;23.13;19.15;;;22.60;78.50;;;;;;5052380;28;20029;-57
2023/06/29 10:36:03;;;;;;;21.90;19.58;;;22.80;77.70;;;;;;5031138;28;20037;-52
2023/06/29 10:38:34;;;;;;;22.77;20.38;;;22.90;76.60;;;;;;5032823;28;20025;-56
2023/06/29 10:41:04;;;;;;;24.98;20.08;;;22.90;76.50;;;;;;5032456;28;20072;-51
2023/06/29 10:43:54;;;;;;;20.30;16.40;;;22.90;75.40;;;;;;5032511;28;20121;-56
2023/06/29 10:46:46;;;;;;;22.13;17.63;;;23.00;75.90;;;;;;5032971;28;20092;-51
2023/06/29 10:49:31;;;;;;;22.60;20.15;;;23.00;75.60;;;;;;5016696;28;20033;-54
2023/06/29 10:52:03;;;;;;;25.00;20.90;;;22.90;75.40;;;;;;5032512;28;20026;-56
2023/06/29 10:54:30;;;;;;;22.05;19.08;;;22.90;75.80;;;;;;5032082;28;20502;-55
2023/06/29 10:57:10;;;;;;;28.15;22.33;;;23.00;76.60;;;;;;5032478;28;20044;-53
2023/06/29 10:59:39;;;;;;;26.35;20.73;;;23.10;76.30;;;;;;5032308;28;20018;-57
2023/06/29 11:02:07;;;;;;;25.02;21.17;;;23.10;76.20;;;;;;5032714;28;20026;-54
2023/06/29 11:04:34;;;;;;;23.70;21.30;;;23.20;76.30;;;;;;5035981;28;20041;-54
2023/06/29 11:07:07;;;;;;;29.40;24.02;;;23.00;75.70;;;;;;5036356;28;20025;-57
2023/06/29 11:09:34;;;;;;;24.38;20.15;;;22.90;75.80;;;;;;5036232;28;20023;-56
2023/06/29 11:12:01;;;;;;;22.85;20.42;;;23.00;76.30;;;;;;5034051;28;20034;-53
2023/06/29 11:14:31;;;;;;;23.83;20.77;;;23.20;76.70;;;;;;5035819;28;20029;-54
2023/06/29 11:16:59;;;;;;;30.13;26.02;;;23.30;76.40;;;;;;5036146;28;20477;-56
2023/06/29 11:19:32;;;;;;;29.75;25.33;;;23.40;76.20;;;;;;5034574;28;20398;-56
2023/06/29 11:22:00;;;;;;;28.40;24.38;;;23.50;75.00;;;;;;5034983;28;20025;-52
2023/06/29 11:24:26;;;;;;;34.28;24.02;;;23.50;74.90;;;;;;5035841;28;20025;-54
2023/06/29 11:26:53;;;;;;;25.48;22.85;;;23.40;75.10;;;;;;5035978;28;20454;-56
2023/06/29 11:29:21;;;;;;;30.52;23.95;;;23.40;75.60;;;;;;5035560;28;20033;-56
2023/06/29 11:31:47;;;;;;;23.52;20.48;;;23.40;75.10;;;;;;5035957;28;20080;-55
2023/06/29 11:34:14;;;;;;;29.90;24.55;;;23.40;76.10;;;;;;5035752;28;20048;-57
2023/06/29 11:36:40;;;;;;;32.50;27.25;;;23.40;76.10;;;;;;5035989;28;20365;-51
2023/06/29 11:39:12;;;;;;;33.28;27.27;;;23.30;76.80;;;;;;5035293;28;20039;-54
2023/06/29 11:41:43;;;;;;;30.13;26.83;;;23.30;76.80;;;;;;5035429;28;20233;-51
2023/06/29 11:44:10;;;;;;;32.65;27.10;;;23.10;76.80;;;;;;5035453;28;20056;-56
2023/06/29 11:46:37;;;;;;;29.58;25.85;;;22.90;77.60;;;;;;5034956;28;20033;-54
2023/06/29 11:49:04;;;;;;;33.17;26.13;;;22.80;77.50;;;;;;5034515;28;20104;-57
2023/06/29 11:51:38;;;;;;;29.90;26.45;;;22.70;77.80;;;;;;5035351;28;20451;-51
2023/06/29 11:54:09;;;;;;;33.88;29.35;;;22.90;78.70;;;;;;5035062;28;20359;-55
2023/06/29 11:56:53;;;;;;;31.15;27.00;;;22.90;78.50;;;;;;5034963;28;20025;-57
2023/06/29 11:59:20;;;;;;;28.52;22.25;;;23.10;77.80;;;;;;5034969;28;20035;-56
2023/06/29 12:01:48;;;;;;;33.35;27.73;;;23.40;77.70;;;;;;5035269;28;20345;-53
2023/06/29 12:04:15;;;;;;;31.35;26.63;;;23.70;76.40;;;;;;5035060;28;20117;-54
2023/06/29 12:06:51;;;;;;;25.83;22.95;;;23.90;76.10;;;;;;5052515;28;20029;-55
2023/06/29 12:09:18;;;;;;;28.55;25.60;;;24.20;75.00;;;;;;5051866;28;20467;-53
2023/06/29 12:11:55;;;;;;;28.42;24.85;;;24.20;74.50;;;;;;5034024;28;20057;-56
2023/06/29 12:14:21;;;;;;;30.92;27.65;;;24.30;72.30;;;;;;5034474;28;20028;-54
2023/06/29 12:16:51;;;;;;;29.98;26.83;;;24.20;72.30;;;;;;5034772;28;20026;-53
2023/06/29 12:19:18;;;;;;;25.92;23.13;;;24.00;71.90;;;;;;5033930;28;20452;-56
2023/06/29 12:21:44;;;;;;;25.23;22.63;;;24.00;72.90;;;;;;5035077;28;20041;-57
2023/06/29 12:24:16;;;;;;;25.88;22.42;;;24.00;72.80;;;;;;5033699;28;20135;-54
2023/06/29 12:26:42;;;;;;;25.88;23.35;;;24.10;72.60;;;;;;5034676;28;20049;-53
2023/06/29 12:29:10;;;;;;;26.80;24.00;;;24.00;72.10;;;;;;5034637;28;20041;-56
2023/06/29 12:31:36;;;;;;;30.95;25.48;;;23.80;73.60;;;;;;5034605;28;20367;-55
2023/06/29 12:34:03;;;;;;;28.67;25.73;;;23.70;73.70;;;;;;5034117;28;20033;-57
2023/06/29 12:36:33;;;;;;;32.40;24.58;;;23.40;73.70;;;;;;5034090;28;20025;-56
2023/06/29 12:39:02;;;;;;;;;;;23.30;74.50;;;;;;5034610;28;20033;-57